sensor_id;sensor_type;location;lat;lon;timestamp;temperature;humidity
16313;DHT22;8265;52.622;13.296;2022-08-25T00:00:28;19.00;99.90
16313;DHT22;8265;52.622;13.296;2022-08-25T00:05:49;18.90;99.90
16313;DHT22;8265;52.622;13.296;2022-08-25T00:11:11;19.00;99.90
16313;DHT22;8265;52.622;13.296;2022-08-25T00:16:31;19.00;99.90
16313;DHT22;8265;52.622;13.296;2022-08-25T00:21:52;19.20;99.90
16313;DHT22;8265;52.622;13.296;2022-08-25T00:27:13;19.10;99.90
16313;DHT22;8265;52.622;13.296;2022-08-25T00:32:34;18.90;99.90
16313;DHT22;8265;52.622;13.296;2022-08-25T00:37:54;18.80;99.90
16313;DHT22;8265;52.622;13.296;2022-08-25T00:43:16;18.80;99.90
16313;DHT22;8265;52.622;13.296;2022-08-25T00:48:36;18.70;99.90
16313;DHT22;8265;52.622;13.296;2022-08-25T00:53:57;18.70;99.90
16313;DHT22;8265;52.622;13.296;2022-08-25T00:59:19;18.80;99.90
16313;DHT22;8265;52.622;13.296;2022-08-25T01:04:40;18.70;99.90
16313;DHT22;8265;52.622;13.296;2022-08-25T01:10:00;18.60;99.90
16313;DHT22;8265;52.622;13.296;2022-08-25T01:15:21;18.70;99.90
16313;DHT22;8265;52.622;13.296;2022-08-25T01:20:42;18.70;99.90
16313;DHT22;8265;52.622;13.296;2022-08-25T01:26:04;18.80;99.90
16313;DHT22;8265;52.622;13.296;2022-08-25T01:31:24;18.70;99.90
16313;DHT22;8265;52.622;13.296;2022-08-25T01:36:45;18.80;99.90
16313;DHT22;8265;52.622;13.296;2022-08-25T01:42:18;18.70;99.90
16313;DHT22;8265;52.622;13.296;2022-08-25T01:47:28;18.70;99.90
16313;DHT22;8265;52.622;13.296;2022-08-25T01:52:50;18.60;99.90
16313;DHT22;8265;52.622;13.296;2022-08-25T01:58:09;18.50;99.90
16313;DHT22;8265;52.622;13.296;2022-08-25T02:03:30;18.60;99.90
16313;DHT22;8265;52.622;13.296;2022-08-25T02:08:52;18.60;99.90
16313;DHT22;8265;52.622;13.296;2022-08-25T02:14:12;18.60;99.90
16313;DHT22;8265;52.622;13.296;2022-08-25T02:19:33;18.40;99.90
16313;DHT22;8265;52.622;13.296;2022-08-25T02:24:54;18.40;99.90
16313;DHT22;8265;52.622;13.296;2022-08-25T02:30:15;18.40;99.90
16313;DHT22;8265;52.622;13.296;2022-08-25T02:35:36;18.40;99.90
16313;DHT22;8265;52.622;13.296;2022-08-25T02:40:57;18.40;99.90
16313;DHT22;8265;52.622;13.296;2022-08-25T02:46:18;18.20;99.90
16313;DHT22;8265;52.622;13.296;2022-08-25T02:51:39;18.20;99.90
16313;DHT22;8265;52.622;13.296;2022-08-25T02:56:59;18.10;99.90
16313;DHT22;8265;52.622;13.296;2022-08-25T03:02:20;18.00;99.90
16313;DHT22;8265;52.622;13.296;2022-08-25T03:07:41;18.00;99.90
16313;DHT22;8265;52.622;13.296;2022-08-25T03:13:03;18.00;99.90
16313;DHT22;8265;52.622;13.296;2022-08-25T03:18:23;17.90;99.90
16313;DHT22;8265;52.622;13.296;2022-08-25T03:23:45;18.10;99.90
16313;DHT22;8265;52.622;13.296;2022-08-25T03:29:05;18.20;99.90
16313;DHT22;8265;52.622;13.296;2022-08-25T03:34:27;18.30;99.90
16313;DHT22;8265;52.622;13.296;2022-08-25T03:39:47;18.30;99.90
16313;DHT22;8265;52.622;13.296;2022-08-25T03:45:12;18.30;99.90
16313;DHT22;8265;52.622;13.296;2022-08-25T03:50:29;18.30;99.90
16313;DHT22;8265;52.622;13.296;2022-08-25T03:55:50;18.30;99.90
16313;DHT22;8265;52.622;13.296;2022-08-25T04:01:11;18.30;99.90
16313;DHT22;8265;52.622;13.296;2022-08-25T04:06:32;18.30;99.90
16313;DHT22;8265;52.622;13.296;2022-08-25T04:11:53;18.50;99.90
16313;DHT22;8265;52.622;13.296;2022-08-25T04:17:14;18.50;99.90
16313;DHT22;8265;52.622;13.296;2022-08-25T04:22:35;18.60;99.90
16313;DHT22;8265;52.622;13.296;2022-08-25T04:27:56;18.50;99.90
16313;DHT22;8265;52.622;13.296;2022-08-25T04:33:17;18.50;99.90
16313;DHT22;8265;52.622;13.296;2022-08-25T04:38:38;18.60;99.90
16313;DHT22;8265;52.622;13.296;2022-08-25T04:43:59;18.60;99.90
16313;DHT22;8265;52.622;13.296;2022-08-25T04:49:20;18.60;99.90
16313;DHT22;8265;52.622;13.296;2022-08-25T04:54:40;18.70;99.90
16313;DHT22;8265;52.622;13.296;2022-08-25T05:00:03;18.80;99.90
16313;DHT22;8265;52.622;13.296;2022-08-25T05:05:22;18.80;99.90
16313;DHT22;8265;52.622;13.296;2022-08-25T05:10:43;18.90;99.90
16313;DHT22;8265;52.622;13.296;2022-08-25T05:16:05;19.00;99.90
16313;DHT22;8265;52.622;13.296;2022-08-25T05:21:26;19.20;99.90
16313;DHT22;8265;52.622;13.296;2022-08-25T05:26:46;19.20;99.90
16313;DHT22;8265;52.622;13.296;2022-08-25T05:32:07;19.30;99.90
16313;DHT22;8265;52.622;13.296;2022-08-25T05:37:28;19.30;99.90
16313;DHT22;8265;52.622;13.296;2022-08-25T05:42:49;19.30;99.90
16313;DHT22;8265;52.622;13.296;2022-08-25T05:48:10;19.50;99.90
16313;DHT22;8265;52.622;13.296;2022-08-25T05:53:31;19.50;99.90
16313;DHT22;8265;52.622;13.296;2022-08-25T05:58:52;19.80;99.90
16313;DHT22;8265;52.622;13.296;2022-08-25T06:04:14;19.80;99.90
16313;DHT22;8265;52.622;13.296;2022-08-25T06:09:34;19.80;99.90
16313;DHT22;8265;52.622;13.296;2022-08-25T06:14:25;19.80;99.90
16313;DHT22;8265;52.622;13.296;2022-08-25T06:19:46;19.90;99.90
16313;DHT22;8265;52.622;13.296;2022-08-25T06:25:08;20.00;99.90
16313;DHT22;8265;52.622;13.296;2022-08-25T06:30:28;20.00;99.90
16313;DHT22;8265;52.622;13.296;2022-08-25T06:35:51;20.10;99.90
16313;DHT22;8265;52.622;13.296;2022-08-25T06:41:10;20.30;99.90
16313;DHT22;8265;52.622;13.296;2022-08-25T06:46:31;20.60;99.90
16313;DHT22;8265;52.622;13.296;2022-08-25T06:51:52;20.70;99.90
16313;DHT22;8265;52.622;13.296;2022-08-25T06:57:13;20.60;99.90
16313;DHT22;8265;52.622;13.296;2022-08-25T07:02:37;20.90;99.90
16313;DHT22;8265;52.622;13.296;2022-08-25T07:07:55;21.10;99.90
16313;DHT22;8265;52.622;13.296;2022-08-25T07:13:16;21.30;99.90
16313;DHT22;8265;52.622;13.296;2022-08-25T07:18:37;21.50;99.90
16313;DHT22;8265;52.622;13.296;2022-08-25T07:23:57;21.50;99.90
16313;DHT22;8265;52.622;13.296;2022-08-25T07:29:20;21.50;99.90
16313;DHT22;8265;52.622;13.296;2022-08-25T07:34:39;21.70;99.90
16313;DHT22;8265;52.622;13.296;2022-08-25T07:40:03;21.80;99.90
16313;DHT22;8265;52.622;13.296;2022-08-25T07:45:22;22.20;99.90
16313;DHT22;8265;52.622;13.296;2022-08-25T07:50:43;22.30;99.90
16313;DHT22;8265;52.622;13.296;2022-08-25T07:56:07;22.50;99.90
16313;DHT22;8265;52.622;13.296;2022-08-25T08:01:24;23.00;99.90
16313;DHT22;8265;52.622;13.296;2022-08-25T08:06:45;23.10;99.90
16313;DHT22;8265;52.622;13.296;2022-08-25T08:12:07;23.10;99.90
16313;DHT22;8265;52.622;13.296;2022-08-25T08:17:27;23.40;99.90
16313;DHT22;8265;52.622;13.296;2022-08-25T08:22:48;23.70;99.90
16313;DHT22;8265;52.622;13.296;2022-08-25T08:28:09;23.70;99.90
16313;DHT22;8265;52.622;13.296;2022-08-25T08:33:30;23.80;99.90
16313;DHT22;8265;52.622;13.296;2022-08-25T08:38:51;24.00;99.90
16313;DHT22;8265;52.622;13.296;2022-08-25T08:44:14;23.80;99.90
16313;DHT22;8265;52.622;13.296;2022-08-25T08:49:36;24.00;99.90
16313;DHT22;8265;52.622;13.296;2022-08-25T08:54:56;24.60;99.90
16313;DHT22;8265;52.622;13.296;2022-08-25T09:00:15;24.50;99.90
16313;DHT22;8265;52.622;13.296;2022-08-25T09:05:40;24.70;99.90
16313;DHT22;8265;52.622;13.296;2022-08-25T09:11:01;25.20;99.90
16313;DHT22;8265;52.622;13.296;2022-08-25T09:16:21;25.10;99.90
16313;DHT22;8265;52.622;13.296;2022-08-25T09:21:41;25.30;99.90
16313;DHT22;8265;52.622;13.296;2022-08-25T09:27:04;25.20;99.90
16313;DHT22;8265;52.622;13.296;2022-08-25T09:32:21;25.20;99.90
16313;DHT22;8265;52.622;13.296;2022-08-25T09:37:42;25.30;99.90
16313;DHT22;8265;52.622;13.296;2022-08-25T09:43:04;25.70;99.90
16313;DHT22;8265;52.622;13.296;2022-08-25T09:48:25;25.80;99.90
16313;DHT22;8265;52.622;13.296;2022-08-25T09:53:47;25.70;99.90
16313;DHT22;8265;52.622;13.296;2022-08-25T09:59:20;25.40;99.90
16313;DHT22;8265;52.622;13.296;2022-08-25T10:04:27;25.90;99.90
16313;DHT22;8265;52.622;13.296;2022-08-25T10:09:51;26.10;99.90
16313;DHT22;8265;52.622;13.296;2022-08-25T10:15:17;26.40;99.90
16313;DHT22;8265;52.622;13.296;2022-08-25T10:20:30;26.40;99.90
16313;DHT22;8265;52.622;13.296;2022-08-25T10:25:50;26.20;99.90
16313;DHT22;8265;52.622;13.296;2022-08-25T10:31:16;25.70;99.90
16313;DHT22;8265;52.622;13.296;2022-08-25T10:36:37;26.00;99.90
16313;DHT22;8265;52.622;13.296;2022-08-25T10:42:00;26.20;99.90
16313;DHT22;8265;52.622;13.296;2022-08-25T10:47:37;26.60;99.90
16313;DHT22;8265;52.622;13.296;2022-08-25T10:52:38;26.70;99.90
16313;DHT22;8265;52.622;13.296;2022-08-25T10:57:59;27.30;99.90
16313;DHT22;8265;52.622;13.296;2022-08-25T11:03:35;27.60;99.90
16313;DHT22;8265;52.622;13.296;2022-08-25T11:08:39;27.70;99.90
16313;DHT22;8265;52.622;13.296;2022-08-25T11:14:00;28.00;99.90
16313;DHT22;8265;52.622;13.296;2022-08-25T11:19:21;27.70;99.90
16313;DHT22;8265;52.622;13.296;2022-08-25T11:24:54;28.20;99.90
16313;DHT22;8265;52.622;13.296;2022-08-25T11:30:04;28.10;99.90
16313;DHT22;8265;52.622;13.296;2022-08-25T11:35:28;28.10;99.90
16313;DHT22;8265;52.622;13.296;2022-08-25T11:40:55;28.70;99.90
16313;DHT22;8265;52.622;13.296;2022-08-25T11:46:12;28.60;99.90
16313;DHT22;8265;52.622;13.296;2022-08-25T11:51:30;28.50;99.90
16313;DHT22;8265;52.622;13.296;2022-08-25T11:56:55;28.20;99.90
16313;DHT22;8265;52.622;13.296;2022-08-25T12:02:16;28.30;99.90
16313;DHT22;8265;52.622;13.296;2022-08-25T12:07:31;28.20;99.90
16313;DHT22;8265;52.622;13.296;2022-08-25T12:13:04;28.10;99.90
16313;DHT22;8265;52.622;13.296;2022-08-25T12:14:46;28.40;99.90
16313;DHT22;8265;52.622;13.296;2022-08-25T12:20:00;28.10;99.90
16313;DHT22;8265;52.622;13.296;2022-08-25T12:25:29;27.90;99.90
16313;DHT22;8265;52.622;13.296;2022-08-25T12:30:43;28.00;99.90
16313;DHT22;8265;52.622;13.296;2022-08-25T12:36:03;28.90;99.90
16313;DHT22;8265;52.622;13.296;2022-08-25T12:41:25;29.10;99.90
16313;DHT22;8265;52.622;13.296;2022-08-25T12:46:44;29.10;99.90
16313;DHT22;8265;52.622;13.296;2022-08-25T12:52:07;28.70;99.90
16313;DHT22;8265;52.622;13.296;2022-08-25T12:57:39;28.20;99.90
16313;DHT22;8265;52.622;13.296;2022-08-25T13:02:55;28.40;99.90
16313;DHT22;8265;52.622;13.296;2022-08-25T13:13:36;29.30;99.90
16313;DHT22;8265;52.622;13.296;2022-08-25T13:18:50;29.00;99.90
16313;DHT22;8265;52.622;13.296;2022-08-25T13:24:13;29.10;99.90
16313;DHT22;8265;52.622;13.296;2022-08-25T13:29:33;29.80;99.90
16313;DHT22;8265;52.622;13.296;2022-08-25T13:34:54;30.20;99.90
16313;DHT22;8265;52.622;13.296;2022-08-25T13:40:15;30.60;99.90
16313;DHT22;8265;52.622;13.296;2022-08-25T13:45:36;30.40;99.90
16313;DHT22;8265;52.622;13.296;2022-08-25T13:51:02;29.90;99.90
16313;DHT22;8265;52.622;13.296;2022-08-25T13:56:24;29.90;99.90
16313;DHT22;8265;52.622;13.296;2022-08-25T14:01:46;30.60;99.90
16313;DHT22;8265;52.622;13.296;2022-08-25T14:07:27;29.80;99.90
16313;DHT22;8265;52.622;13.296;2022-08-25T14:12:34;28.80;99.90
16313;DHT22;8265;52.622;13.296;2022-08-25T14:17:42;29.00;99.90
16313;DHT22;8265;52.622;13.296;2022-08-25T14:23:04;30.00;99.90
16313;DHT22;8265;52.622;13.296;2022-08-25T14:28:24;30.90;99.90
16313;DHT22;8265;52.622;13.296;2022-08-25T14:33:46;31.70;99.90
16313;DHT22;8265;52.622;13.296;2022-08-25T14:39:05;32.70;99.90
16313;DHT22;8265;52.622;13.296;2022-08-25T14:44:26;31.30;99.90
16313;DHT22;8265;52.622;13.296;2022-08-25T14:49:47;31.80;99.90
16313;DHT22;8265;52.622;13.296;2022-08-25T14:55:09;32.00;99.90
16313;DHT22;8265;52.622;13.296;2022-08-25T15:00:29;32.40;99.90
16313;DHT22;8265;52.622;13.296;2022-08-25T15:05:49;32.00;99.90
16313;DHT22;8265;52.622;13.296;2022-08-25T15:11:11;31.80;99.90
16313;DHT22;8265;52.622;13.296;2022-08-25T15:16:33;31.50;99.90
16313;DHT22;8265;52.622;13.296;2022-08-25T15:21:52;31.70;99.90
16313;DHT22;8265;52.622;13.296;2022-08-25T15:27:13;31.40;99.90
16313;DHT22;8265;52.622;13.296;2022-08-25T15:32:34;31.30;99.90
16313;DHT22;8265;52.622;13.296;2022-08-25T15:37:55;31.40;99.90
16313;DHT22;8265;52.622;13.296;2022-08-25T15:43:16;31.10;99.90
16313;DHT22;8265;52.622;13.296;2022-08-25T15:48:37;31.00;99.90
16313;DHT22;8265;52.622;13.296;2022-08-25T15:53:58;31.30;99.90
16313;DHT22;8265;52.622;13.296;2022-08-25T15:59:19;30.90;99.90
16313;DHT22;8265;52.622;13.296;2022-08-25T16:04:40;30.30;99.90
16313;DHT22;8265;52.622;13.296;2022-08-25T16:10:02;30.10;99.90
16313;DHT22;8265;52.622;13.296;2022-08-25T16:15:22;30.00;99.90
16313;DHT22;8265;52.622;13.296;2022-08-25T16:20:44;29.80;99.90
16313;DHT22;8265;52.622;13.296;2022-08-25T16:26:05;29.40;99.90
16313;DHT22;8265;52.622;13.296;2022-08-25T16:31:25;29.30;99.90
16313;DHT22;8265;52.622;13.296;2022-08-25T16:36:46;28.90;99.90
16313;DHT22;8265;52.622;13.296;2022-08-25T16:42:07;28.50;99.90
16313;DHT22;8265;52.622;13.296;2022-08-25T16:47:31;28.30;99.90
16313;DHT22;8265;52.622;13.296;2022-08-25T16:52:49;28.30;99.90
16313;DHT22;8265;52.622;13.296;2022-08-25T16:58:10;28.20;99.90
16313;DHT22;8265;52.622;13.296;2022-08-25T17:03:31;27.90;99.90
16313;DHT22;8265;52.622;13.296;2022-08-25T17:08:52;27.80;99.90
16313;DHT22;8265;52.622;13.296;2022-08-25T17:14:13;27.60;99.90
16313;DHT22;8265;52.622;13.296;2022-08-25T17:19:34;27.40;99.90
16313;DHT22;8265;52.622;13.296;2022-08-25T17:24:55;27.00;99.90
16313;DHT22;8265;52.622;13.296;2022-08-25T17:30:16;26.80;99.90
16313;DHT22;8265;52.622;13.296;2022-08-25T17:35:39;26.30;99.90
16313;DHT22;8265;52.622;13.296;2022-08-25T17:40:58;26.10;99.90
16313;DHT22;8265;52.622;13.296;2022-08-25T17:46:19;26.10;99.90
16313;DHT22;8265;52.622;13.296;2022-08-25T17:51:40;25.90;99.90
16313;DHT22;8265;52.622;13.296;2022-08-25T17:57:01;25.60;99.90
16313;DHT22;8265;52.622;13.296;2022-08-25T18:02:24;25.30;99.90
16313;DHT22;8265;52.622;13.296;2022-08-25T18:07:42;25.20;99.90
16313;DHT22;8265;52.622;13.296;2022-08-25T18:13:03;24.80;99.90
16313;DHT22;8265;52.622;13.296;2022-08-25T18:18:25;24.60;99.90
16313;DHT22;8265;52.622;13.296;2022-08-25T18:23:46;24.40;99.90
16313;DHT22;8265;52.622;13.296;2022-08-25T18:29:06;24.10;99.90
16313;DHT22;8265;52.622;13.296;2022-08-25T18:34:28;24.10;99.90
16313;DHT22;8265;52.622;13.296;2022-08-25T18:39:48;24.10;99.90
16313;DHT22;8265;52.622;13.296;2022-08-25T18:45:10;24.10;99.90
16313;DHT22;8265;52.622;13.296;2022-08-25T18:50:31;23.80;99.90
16313;DHT22;8265;52.622;13.296;2022-08-25T18:55:51;23.60;99.90
16313;DHT22;8265;52.622;13.296;2022-08-25T19:01:13;23.30;99.90
16313;DHT22;8265;52.622;13.296;2022-08-25T19:06:33;23.10;99.90
16313;DHT22;8265;52.622;13.296;2022-08-25T19:11:54;22.90;99.90
16313;DHT22;8265;52.622;13.296;2022-08-25T19:17:15;22.80;99.90
16313;DHT22;8265;52.622;13.296;2022-08-25T19:22:36;22.70;99.90
16313;DHT22;8265;52.622;13.296;2022-08-25T19:27:57;22.80;99.90
16313;DHT22;8265;52.622;13.296;2022-08-25T19:33:18;22.60;99.90
16313;DHT22;8265;52.622;13.296;2022-08-25T19:38:39;22.50;99.90
16313;DHT22;8265;52.622;13.296;2022-08-25T19:44:00;22.30;99.90
16313;DHT22;8265;52.622;13.296;2022-08-25T19:49:23;22.10;99.90
16313;DHT22;8265;52.622;13.296;2022-08-25T19:54:43;22.00;99.90
16313;DHT22;8265;52.622;13.296;2022-08-25T20:00:05;21.90;99.90
16313;DHT22;8265;52.622;13.296;2022-08-25T20:05:24;21.80;99.90
16313;DHT22;8265;52.622;13.296;2022-08-25T20:10:45;21.60;99.90
16313;DHT22;8265;52.622;13.296;2022-08-25T20:16:06;21.60;99.90
16313;DHT22;8265;52.622;13.296;2022-08-25T20:21:27;21.40;99.90
16313;DHT22;8265;52.622;13.296;2022-08-25T20:26:52;21.30;99.90
16313;DHT22;8265;52.622;13.296;2022-08-25T20:32:09;21.20;99.90
16313;DHT22;8265;52.622;13.296;2022-08-25T20:37:30;21.20;99.90
16313;DHT22;8265;52.622;13.296;2022-08-25T20:42:51;21.10;99.90
16313;DHT22;8265;52.622;13.296;2022-08-25T20:48:12;21.10;99.90
16313;DHT22;8265;52.622;13.296;2022-08-25T20:53:34;21.00;99.90
16313;DHT22;8265;52.622;13.296;2022-08-25T20:58:54;21.00;99.90
16313;DHT22;8265;52.622;13.296;2022-08-25T21:04:16;21.00;99.90
16313;DHT22;8265;52.622;13.296;2022-08-25T21:09:36;20.90;99.90
16313;DHT22;8265;52.622;13.296;2022-08-25T21:14:57;20.80;99.90
16313;DHT22;8265;52.622;13.296;2022-08-25T21:20:25;20.90;99.90
16313;DHT22;8265;52.622;13.296;2022-08-25T21:25:40;20.80;99.90
16313;DHT22;8265;52.622;13.296;2022-08-25T21:31:00;20.80;99.90
16313;DHT22;8265;52.622;13.296;2022-08-25T21:36:21;20.80;99.90
16313;DHT22;8265;52.622;13.296;2022-08-25T21:41:42;20.80;99.90
16313;DHT22;8265;52.622;13.296;2022-08-25T21:47:03;21.00;99.90
16313;DHT22;8265;52.622;13.296;2022-08-25T21:52:24;20.90;99.90
16313;DHT22;8265;52.622;13.296;2022-08-25T21:57:48;20.80;99.90
16313;DHT22;8265;52.622;13.296;2022-08-25T22:03:06;20.80;99.90
16313;DHT22;8265;52.622;13.296;2022-08-25T22:08:27;20.80;99.90
16313;DHT22;8265;52.622;13.296;2022-08-25T22:13:49;20.70;99.90
16313;DHT22;8265;52.622;13.296;2022-08-25T22:19:11;20.70;99.90
16313;DHT22;8265;52.622;13.296;2022-08-25T22:24:30;20.60;99.90
16313;DHT22;8265;52.622;13.296;2022-08-25T22:29:50;20.70;99.90
16313;DHT22;8265;52.622;13.296;2022-08-25T22:35:12;20.60;99.90
16313;DHT22;8265;52.622;13.296;2022-08-25T22:40:34;20.70;99.90
16313;DHT22;8265;52.622;13.296;2022-08-25T22:46:00;20.80;99.90
16313;DHT22;8265;52.622;13.296;2022-08-25T22:51:15;20.80;99.90
16313;DHT22;8265;52.622;13.296;2022-08-25T22:56:39;20.80;99.90
16313;DHT22;8265;52.622;13.296;2022-08-25T23:01:56;20.70;99.90
16313;DHT22;8265;52.622;13.296;2022-08-25T23:07:17;20.70;99.90
16313;DHT22;8265;52.622;13.296;2022-08-25T23:12:38;20.70;99.90
16313;DHT22;8265;52.622;13.296;2022-08-25T23:17:59;20.70;99.90
16313;DHT22;8265;52.622;13.296;2022-08-25T23:23:20;20.60;99.90
16313;DHT22;8265;52.622;13.296;2022-08-25T23:28:42;20.50;99.90
16313;DHT22;8265;52.622;13.296;2022-08-25T23:34:02;20.50;99.90
16313;DHT22;8265;52.622;13.296;2022-08-25T23:39:23;20.30;99.90
16313;DHT22;8265;52.622;13.296;2022-08-25T23:44:44;20.30;99.90
16313;DHT22;8265;52.622;13.296;2022-08-25T23:50:06;20.30;99.90
16313;DHT22;8265;52.622;13.296;2022-08-25T23:55:26;20.40;99.90
